鹿児島空港の過去48時間の天気

鹿児島空港 (Kagoshima)

現在時刻: 7/17 18:52 JST (7/17 09:52 UTC) 以下の時間は現地時間です。

過去48時間のMETAR気象情報
時間 風向 風速(m/s) 視程 気温(℃) 湿度(%) 気圧(hPa) 天気現象
17 18:00 南南西 4 10km以上 30 62 1012
17 17:00 4 10km以上 32 52 1012
17 16:00 4 10km以上 32 49 1012
17 15:00 5 10km以上 32 52 1012
17 14:00 3 10km以上 33 49 1012
17 13:00 南南東 3 10km以上 32 52 1012
17 12:47 3 10km以上 33 53 1013
17 12:00 不定 2 10km以上 31 59 1013
17 11:00 不定 2 10km以上 30 59 1013
17 10:00 南東 2 10km以上 30 66 1013
17 09:00 不定 1 8000m 28 70 1014
17 08:00 不定 1 6000m 26 79 1014
17 07:00 不定 1 4000m 24 94 1014 散在した霧 もや
17 06:00 北北東 2 4000m 23 94 1014 散在した霧 もや
RJFK 170900Z 20007KT 9999 FEW030 SCT050 30/22 Q1012 RMK 2CU030 3SC050 A2989 VOLCANIC ASH CLOUD S
RJFK 170800Z 17007KT 130V200 9999 FEW030 SCT050 32/21 Q1012 RMK 2CU030 3SC050 A2989 VOLCANIC ASH CLOUD S
RJFK 170700Z 19008KT 9999 FEW030 SCT/// 32/20 Q1012 RMK 2CU030 A2989 VOLCANIC ASH CLOUD S-SW
RJFK 170600Z 19009KT 150V250 9999 FEW030 SCT/// 32/21 Q1012
RJFK 170500Z 17006KT 130V210 9999 FEW030 BKN/// 33/21 Q1012 RMK 2CU030 A2990 VOLCANIC ASH CLOUD S-SW
RJFK 170400Z 16005KT 120V220 9999 FEW030 SCT040 BKN/// 32/21 Q1012
RJFK 170347Z 17005KT 140V250 9999 FEW030 SCT040 BKN/// 33/22 Q1013 RMK 1CU030 3CU040 A2991 VOLCANIC ASH CLOUD S-SW
RJFK 170300Z VRB03KT 9999 FEW030 SCT040 BKN/// 31/22 Q1013
RJFK 170200Z VRB03KT 9999 SCT030 SCT/// 30/21 Q1013
RJFK 170100Z 13003KT 090V160 9999 FEW025 SCT/// 30/23 Q1013 RMK 2CU025 A2994 VOLCANIC ASH CLOUD S
RJFK 170000Z VRB02KT 8000 FEW030 28/22 Q1014 RMK 1CU030 A2995 VOLCANIC ASH CLOUD S
RJFK 162300Z VRB01KT 6000 FEW030 26/22 Q1014 RMK 1CU030 A2996 VOLCANIC ASH CLOUD S
RJFK 162200Z VRB01KT 4000 BCFG BR NSC 24/23 Q1014 RMK A2996 9999S FG N-NE VOLCANIC ASH CLOUD S
RJFK 162100Z 02004KT 4000 BCFG BR FEW030 BKN/// 23/22 Q1014 RMK 1CU030 A2996 9999S FG N-E VOLCANIC ASH CLOUD S